Time;durP1;ratioP1;P1;durP2;ratioP2;P2;SDS_P1;SDS_P2;PMS_P1;PMS_P2;Temp;Humidity;BMP_temperature;BMP_pressure;BME280_temperature;BME280_humidity;BME280_pressure;Samples;Min_cycle;Max_cycle;Signal;HPM_P1;HPM_P2
2022/06/17 00:01:20;;;;;;;;;;;;;;;-149.78;69.90;49892.56;5083298;28;19938;-69
2022/06/17 00:03:48;;;;;;;;;;;;;;;-149.78;67.69;49857.38;5079443;28;20341;-69
2022/06/17 00:06:14;;;;;;;;;;;;;;;-149.78;73.29;49867.16;5084448;28;20312;-69
2022/06/17 00:08:42;;;;;;;;;;;;;;;-149.78;68.21;49867.16;5082436;28;19927;-69
2022/06/17 00:11:12;;;;;;;;;;;;;;;-149.78;69.37;49835.88;5085477;28;20305;-69
2022/06/17 00:13:38;;;;;;;;;;;;;;;-149.78;67.76;49873.03;5079059;28;19916;-69
2022/06/17 00:16:04;;;;;;;;;;;;;;;-149.78;67.70;49884.75;5084101;28;19941;-69
2022/06/17 00:18:30;;;;;;;;;;;;;;;-149.78;67.31;49904.31;5090139;28;20390;-69
2022/06/17 00:20:56;;;;;;;;;;;;;;;-149.78;70.54;49888.66;5096514;28;19916;-69
2022/06/17 00:23:22;;;;;;;;;;;;;;;-149.78;69.53;49871.06;5083220;28;19927;-69
2022/06/17 00:25:48;;;;;;;;;;;;;;;-149.78;69.21;49853.47;5089193;28;19921;-69
2022/06/17 00:28:21;;;;;;;;;;;;;;;-149.78;73.60;49845.66;5093067;28;19938;-69
2022/06/17 00:30:47;;;;;;;;;;;;;;;-149.78;78.36;49845.66;5088632;28;20356;-69
2022/06/17 00:33:13;;;;;;;;;;;;;;;-149.78;83.64;49853.47;5078239;28;20272;-69
2022/06/17 00:35:41;;;;;;;;;;;;;;;-149.78;82.67;49851.50;5080714;28;19921;-69
2022/06/17 00:38:10;;;;;;;;;;;;;;;-149.78;83.50;49833.91;5083163;28;19923;-69
2022/06/17 00:40:37;;;;;;;;;;;;;;;-149.78;85.04;49861.28;5083883;28;19920;-69
2022/06/17 00:43:05;;;;;;;;;;;;;;;-149.78;86.39;49845.66;5088512;28;19926;-69
2022/06/17 00:45:54;;;;;;;;;;;;;;;-149.78;90.10;49873.03;5088626;28;20317;-69
2022/06/17 00:48:27;;;;;;;;;;;;;;;-149.78;88.67;49886.72;5068470;28;19971;-69
2022/06/17 00:51:16;;;;;;;;;;;;;;;-149.78;93.65;49869.13;5080750;28;19971;-69
2022/06/17 00:53:48;;;;;;;;;;;;;;;-149.78;96.16;49812.41;5069634;28;19916;-69
2022/06/17 00:56:25;;;;;;;;;;;;;;;-149.78;100.00;49884.75;5076793;28;19916;-69
2022/06/17 00:58:56;;;;;;;;;;;;;;;-149.78;93.88;49853.47;5077488;28;19931;-69
2022/06/17 01:01:23;;;;;;;;;;;;;;;-149.78;99.58;49845.66;5091750;28;19930;-69
2022/06/17 01:03:50;;;;;;;;;;;;;;;-149.78;89.51;49869.13;5089620;28;19931;-69
2022/06/17 01:06:18;;;;;;;;;;;;;;;-149.78;98.20;49849.56;5089113;28;19956;-69
2022/06/17 01:11:31;;;;;;;;;;;;;;;-149.78;83.65;49863.25;5076674;28;19974;-69
2022/06/17 01:13:58;;;;;;;;;;;;;;;-149.78;84.75;49896.50;5083922;28;20009;-69
2022/06/17 01:16:25;;;;;;;;;;;;;;;-149.78;85.46;49873.03;5090230;28;19917;-69
2022/06/17 01:18:52;;;;;;;;;;;;;;;-149.78;77.05;49876.94;5087819;28;19917;-69
2022/06/17 01:21:25;;;;;;;;;;;;;;;-149.78;77.58;49896.50;5075140;28;19916;-69
2022/06/17 01:23:52;;;;;;;;;;;;;;;-149.78;75.80;49861.28;5087691;28;19961;-69
2022/06/17 01:26:17;;;;;;;;;;;;;;;-149.78;77.08;49865.19;5079648;28;19927;-69
2022/06/17 01:28:43;;;;;;;;;;;;;;;-149.78;74.06;49851.50;5088419;28;19920;-69
2022/06/17 01:31:10;;;;;;;;;;;;;;;-149.78;73.90;49865.19;5093858;28;20344;-69
2022/06/17 01:33:37;;;;;;;;;;;;;;;-149.78;75.25;49869.13;5092329;28;19922;-69
2022/06/17 01:36:05;;;;;;;;;;;;;;;-149.78;73.31;49873.03;5080250;28;19916;-69
2022/06/17 01:38:32;;;;;;;;;;;;;;;-149.78;72.48;49900.41;5087981;28;20003;-69
2022/06/17 01:40:58;;;;;;;;;;;;;;;-149.78;72.80;49865.19;5094303;28;19916;-69
2022/06/17 01:43:31;;;;;;;;;;;;;;;-149.78;73.88;49869.13;5081968;28;19916;-69
2022/06/17 01:46:03;;;;;;;;;;;;;;;-149.78;75.11;49873.03;5084495;28;19921;-68
2022/06/17 01:48:32;;;;;;;;;;;;;;;-149.78;80.16;49900.41;5080952;28;20303;-69
2022/06/17 01:51:00;;;;;;;;;;;;;;;-149.78;83.70;49919.94;5079351;28;19916;-69
2022/06/17 01:53:29;;;;;;;;;;;;;;;-149.78;83.92;49890.63;5094353;28;20044;-68
2022/06/17 01:56:02;;;;;;;;;;;;;;;-149.78;83.81;49900.41;5073273;28;19999;-69
2022/06/17 01:58:36;;;;;;;;;;;;;;;-149.78;88.67;49916.03;5073299;28;20061;-68
2022/06/17 02:01:04;;;;;;;;;;;;;;;-149.78;89.96;49880.84;5073400;28;20003;-71
2022/06/17 02:03:32;;;;;;;;;;;;;;;-149.78;86.98;49855.41;5074481;28;19917;-70
2022/06/17 02:06:08;;;;;;;;;;;;;;;-149.78;90.14;49900.41;5094250;28;19920;-70
2022/06/17 02:08:34;;;;;;;;;;;;;;;-149.78;88.44;49874.97;5089725;28;19922;-69
2022/06/17 02:11:01;;;;;;;;;;;;;;;-149.78;96.47;49914.09;5078478;28;20440;-68
2022/06/17 02:13:27;;;;;;;;;;;;;;;-149.78;89.33;49902.34;5085545;28;20287;-70
2022/06/17 02:15:52;;;;;;;;;;;;;;;-149.78;87.09;49873.03;5088563;28;19934;-69
2022/06/17 02:18:19;;;;;;;;;;;;;;;-149.78;89.05;49876.94;5081035;28;21386;-69
2022/06/17 02:20:46;;;;;;;;;;;;;;;-149.78;88.34;49912.13;5075500;28;20263;-69
2022/06/17 02:23:11;;;;;;;;;;;;;;;-149.78;93.43;49882.81;5087568;28;19982;-69
2022/06/17 02:25:43;;;;;;;;;;;;;;;-149.78;90.81;49902.34;5083199;28;19964;-69
2022/06/17 02:28:09;;;;;;;;;;;;;;;-149.78;87.00;49865.19;5084156;28;20287;-69
2022/06/17 02:30:35;;;;;;;;;;;;;;;-149.78;84.01;49947.34;5080737;28;20097;-69
2022/06/17 02:33:02;;;;;;;;;;;;;;;-149.78;88.13;49884.75;5089972;28;20353;-69
2022/06/17 02:35:50;;;;;;;;;;;;;;;-149.78;84.72;49916.03;5078170;28;19927;-70
2022/06/17 02:38:18;;;;;;;;;;;;;;;-149.78;94.18;49912.13;5091871;28;19916;-69
2022/06/17 02:40:48;;;;;;;;;;;;;;;-149.78;92.53;49908.22;5080662;28;19970;-69
2022/06/17 02:43:17;;;;;;;;;;;;;;;-149.78;83.85;49904.31;5078708;28;19917;-69
2022/06/17 02:45:44;;;;;;;;;;;;;;;-149.78;86.27;49900.41;5098095;28;20403;-69
2022/06/17 02:48:18;;;;;;;;;;;;;;;-149.78;86.45;49916.03;5074965;28;20271;-69
2022/06/17 02:50:44;;;;;;;;;;;;;;;-149.78;85.77;49929.72;5080800;28;20371;-70
2022/06/17 02:53:10;;;;;;;;;;;;;;;-149.78;86.25;49894.53;5082017;28;20426;-69
2022/06/17 02:55:38;;;;;;;;;;;;;;;-149.78;82.64;49906.25;5075529;28;20010;-69
2022/06/17 02:58:09;;;;;;;;;;;;;;;-149.78;80.57;49898.44;5073003;28;19920;-70
2022/06/17 03:00:35;;;;;;;;;;;;;;;-149.78;76.88;49912.13;5072598;28;19921;-69
2022/06/17 03:03:03;;;;;;;;;;;;;;;-149.78;80.16;49908.22;5078896;28;19928;-69
2022/06/17 03:05:31;;;;;;;;;;;;;;;-149.78;79.89;49896.50;5075823;28;19931;-69
2022/06/17 03:07:58;;;;;;;;;;;;;;;-149.78;76.67;49888.66;5075942;28;19927;-69
2022/06/17 03:10:44;;;;;;;;;;;;;;;-149.78;83.10;49894.53;5077632;28;19916;-69
2022/06/17 03:13:16;;;;;;;;;;;;;;;-149.78;80.95;49900.41;5089643;28;19920;-70
2022/06/17 03:15:43;;;;;;;;;;;;;;;-149.78;80.02;49884.75;5078831;28;19916;-69
2022/06/17 03:18:09;;;;;;;;;;;;;;;-149.78;79.25;49927.78;5082505;28;20589;-70
2022/06/17 03:20:37;;;;;;;;;;;;;;;-149.78;78.44;49912.13;5091194;28;20023;-69
2022/06/17 03:23:10;;;;;;;;;;;;;;;-149.78;79.47;49916.03;5077523;28;19916;-69
2022/06/17 03:25:38;;;;;;;;;;;;;;;-149.78;86.92;49902.34;5077010;28;20356;-69
2022/06/17 03:28:09;;;;;;;;;;;;;;;-149.78;84.61;49923.88;5081499;28;19923;-69
2022/06/17 03:30:38;;;;;;;;;;;;;;;-149.78;85.22;49873.03;5073536;28;20260;-69
2022/06/17 03:33:10;;;;;;;;;;;;;;;-149.78;83.65;49876.94;5079128;28;20007;-69
2022/06/17 03:35:37;;;;;;;;;;;;;;;-149.78;87.20;49878.88;5083931;28;19920;-69
2022/06/17 03:38:12;;;;;;;;;;;;;;;-149.78;93.64;49884.75;5085127;28;19920;-70
2022/06/17 03:40:43;;;;;;;;;;;;;;;-149.78;92.12;49865.19;5090832;28;19916;-69
2022/06/17 03:43:16;;;;;;;;;;;;;;;-149.78;92.83;49912.13;5082220;28;19916;-69
2022/06/17 03:45:45;;;;;;;;;;;;;;;-149.78;94.63;49900.41;5081818;28;19920;-69
2022/06/17 03:48:15;;;;;;;;;;;;;;;-149.78;95.73;49918.00;5078988;28;19916;-69
2022/06/17 03:50:42;;;;;;;;;;;;;;;-149.78;100.00;49888.66;5071819;28;19916;-70
2022/06/17 03:53:45;;;;;;;;;;;;;;;-149.78;99.88;49865.19;5078097;28;19923;-69
2022/06/17 03:56:30;;;;;;;;;;;;;;;-149.78;97.40;49888.66;5069812;28;20015;-69
2022/06/17 03:58:58;;;;;;;;;;;;;;;-149.78;97.70;49908.22;5061896;28;19917;-70
2022/06/17 04:01:23;;;;;;;;;;;;;;;-149.78;100.00;49912.13;5086830;28;19927;-69
2022/06/17 04:03:58;;;;;;;;;;;;;;;-149.78;99.29;49904.31;5090357;28;19923;-69
2022/06/17 04:06:27;;;;;;;;;;;;;;;-149.78;97.60;49898.44;5088457;28;19927;-69
2022/06/17 04:08:54;;;;;;;;;;;;;;;-149.78;100.00;49888.66;5086181;28;19939;-70
2022/06/17 04:11:21;;;;;;;;;;;;;;;-149.78;100.00;49912.13;5089537;28;20016;-69
2022/06/17 04:13:46;;;;;;;;;;;;;;;-149.78;100.00;49921.91;5081850;28;20007;-70
2022/06/17 04:16:33;;;;;;;;;;;;;;;-149.78;100.00;49908.22;5081793;28;20006;-70
2022/06/17 04:19:15;;;;;;;;;;;;;;;-149.78;100.00;49894.53;5076500;28;20058;-69
2022/06/17 04:21:41;;;;;;;;;;;;;;;-149.78;100.00;49884.75;5077315;28;19924;-69
2022/06/17 04:24:11;;;;;;;;;;;;;;;-149.78;100.00;49927.78;5084727;28;20295;-69
2022/06/17 04:26:38;;;;;;;;;;;;;;;-149.78;100.00;49919.94;5094920;28;19920;-69
2022/06/17 04:29:05;;;;;;;;;;;;;;;-149.78;100.00;49912.13;5081161;28;19924;-70
2022/06/17 04:31:32;;;;;;;;;;;;;;;-149.78;100.00;49931.69;5087708;28;20011;-70
2022/06/17 04:34:12;;;;;;;;;;;;;;;-149.78;100.00;49906.25;5075636;28;19916;-69
2022/06/17 04:36:43;;;;;;;;;;;;;;;-149.78;100.00;49947.34;5082093;28;19916;-69
2022/06/17 04:39:23;;;;;;;;;;;;;;;-149.78;100.00;49906.25;5095430;28;20375;-70
2022/06/17 04:41:51;;;;;;;;;;;;;;;-149.78;100.00;49892.56;5094301;28;19924;-69
2022/06/17 04:44:17;;;;;;;;;;;;;;;-149.78;100.00;49937.56;5091236;28;19924;-69
2022/06/17 04:46:54;;;;;;;;;;;;;;;-149.78;100.00;49919.94;5094378;28;19969;-70
2022/06/17 04:49:21;;;;;;;;;;;;;;;-149.78;100.00;49927.78;5094901;28;20291;-70
2022/06/17 04:51:47;;;;;;;;;;;;;;;-149.78;100.00;49947.34;5086021;28;20015;-70
2022/06/17 04:54:13;;;;;;;;;;;;;;;-149.78;100.00;49880.84;5090863;28;19920;-70
2022/06/17 04:56:43;;;;;;;;;;;;;;;-149.78;100.00;49931.69;5088074;28;19962;-69
2022/06/17 04:59:27;;;;;;;;;;;;;;;-149.78;100.00;49947.34;5088556;28;20311;-69
2022/06/17 05:01:53;;;;;;;;;;;;;;;-149.78;100.00;49900.41;5075234;28;19917;-69
2022/06/17 05:04:19;;;;;;;;;;;;;;;-149.78;99.98;49919.94;5085974;28;19982;-69
2022/06/17 05:06:44;;;;;;;;;;;;;;;-149.78;95.29;49843.69;5082465;28;19981;-69
2022/06/17 05:09:13;;;;;;;;;;;;;;;-149.78;100.00;49871.06;5084722;28;20275;-70
2022/06/17 05:11:41;;;;;;;;;;;;;;;-149.78;100.00;49880.84;5090390;28;20374;-69
2022/06/17 05:14:25;;;;;;;;;;;;;;;-149.78;100.00;49923.88;5089294;28;19962;-70
2022/06/17 05:16:50;;;;;;;;;;;;;;;-149.78;99.21;49894.53;5087406;28;19920;-69
2022/06/17 05:19:15;;;;;;;;;;;;;;;-149.78;94.64;49947.34;5077213;28;19927;-70
2022/06/17 05:21:41;;;;;;;;;;;;;;;-149.78;92.15;49888.66;5079251;28;19941;-69
2022/06/17 05:24:09;;;;;;;;;;;;;;;-149.78;91.01;49900.41;5079375;28;19982;-69
2022/06/17 05:26:35;;;;;;;;;;;;;;;-149.78;90.36;49876.94;5087086;28;19927;-70
2022/06/17 05:29:00;;;;;;;;;;;;;;;-149.78;90.22;49900.41;5074714;28;19924;-69
2022/06/17 05:31:27;;;;;;;;;;;;;;;-149.78;86.88;49904.31;5086301;28;20038;-70
2022/06/17 05:33:53;;;;;;;;;;;;;;;-149.78;85.57;49884.75;5088163;28;19919;-69
2022/06/17 05:36:19;;;;;;;;;;;;;;;-149.78;83.94;49896.50;5085560;28;20334;-70
2022/06/17 05:38:44;;;;;;;;;;;;;;;-149.78;81.69;49900.41;5083187;28;20047;-69
2022/06/17 05:41:13;;;;;;;;;;;;;;;-149.78;78.87;49914.09;5077484;28;19966;-69
2022/06/17 05:43:39;;;;;;;;;;;;;;;-149.78;76.34;49908.22;5067027;28;19923;-70
2022/06/17 05:46:04;;;;;;;;;;;;;;;-149.78;73.35;49906.25;5081327;28;19920;-70
2022/06/17 05:48:30;;;;;;;;;;;;;;;-149.78;76.61;49871.06;5081863;28;19924;-70
2022/06/17 05:50:55;;;;;;;;;;;;;;;-149.78;75.16;49912.13;5081356;28;19924;-70
2022/06/17 05:53:21;;;;;;;;;;;;;;;-149.78;73.33;49871.06;5084972;28;19920;-69
2022/06/17 05:55:47;;;;;;;;;;;;;;;-149.78;65.90;49908.22;5086038;28;19920;-70
2022/06/17 05:58:15;;;;;;;;;;;;;;;-149.78;65.31;49908.22;5084475;28;21436;-69
2022/06/17 06:00:40;;;;;;;;;;;;;;;-149.78;62.31;49904.31;5074609;28;19933;-70
2022/06/17 06:03:07;;;;;;;;;;;;;;;-149.78;61.11;49884.75;5080464;28;19920;-70
2022/06/17 06:05:33;;;;;;;;;;;;;;;-149.78;57.42;49884.75;5078455;28;19924;-70
2022/06/17 06:08:00;;;;;;;;;;;;;;;-149.78;56.80;49876.94;5082964;28;19928;-70
2022/06/17 06:10:25;;;;;;;;;;;;;;;-149.78;57.23;49849.56;5083046;28;19924;-69
2022/06/17 06:12:54;;;;;;;;;;;;;;;-149.78;54.88;49857.38;5084366;28;19962;-69
2022/06/17 06:15:20;;;;;;;;;;;;;;;-149.78;54.76;49888.66;5079324;28;20023;-68
2022/06/17 06:17:47;;;;;;;;;;;;;;;-149.78;53.52;49876.94;5079599;28;20309;-69
2022/06/17 06:20:13;;;;;;;;;;;;;;;-149.78;52.98;49849.56;5079510;28;19974;-68
2022/06/17 06:22:38;;;;;;;;;;;;;;;-149.78;50.38;49867.16;5076164;28;19921;-69
2022/06/17 06:25:04;;;;;;;;;;;;;;;-149.78;47.61;49830.00;5076032;28;19916;-70
2022/06/17 06:27:29;;;;;;;;;;;;;;;-149.78;47.27;49869.13;5074631;28;20028;-72
2022/06/17 06:29:55;;;;;;;;;;;;;;;-149.78;47.10;49806.53;5076761;28;19920;-70
2022/06/17 06:32:20;;;;;;;;;;;;;;;-149.78;46.89;49833.91;5078352;28;20026;-70
2022/06/17 06:34:47;;;;;;;;;;;;;;;-149.78;46.69;49869.13;5084405;28;20241;-70
2022/06/17 06:37:13;;;;;;;;;;;;;;;-149.78;45.24;49855.41;5074525;28;19935;-71
2022/06/17 06:39:38;;;;;;;;;;;;;;;-149.78;45.81;49861.28;5076472;28;19920;-70
2022/06/17 06:42:05;;;;;;;;;;;;;;;-149.78;45.61;49841.72;5075068;28;20413;-72
2022/06/17 06:44:30;;;;;;;;;;;;;;;-149.78;44.90;49845.66;5083532;28;19927;-72
2022/06/17 06:46:56;;;;;;;;;;;;;;;-149.78;44.04;49857.38;5078599;28;19924;-71
2022/06/17 06:49:22;;;;;;;;;;;;;;;-149.78;42.23;49835.88;5079351;28;19916;-73
2022/06/17 06:51:47;;;;;;;;;;;;;;;-149.78;40.37;49830.00;5086927;28;19916;-72
2022/06/17 06:54:13;;;;;;;;;;;;;;;-149.78;38.62;49822.19;5082594;28;19948;-71
2022/06/17 06:56:39;;;;;;;;;;;;;;;-149.78;38.70;49826.09;5082021;28;19977;-72
2022/06/17 06:59:04;;;;;;;;;;;;;;;-149.78;39.37;49826.09;5084059;28;19955;-73
2022/06/17 07:01:31;;;;;;;;;;;;;;;-149.78;39.04;49820.22;5077975;28;19920;-72
2022/06/17 07:03:56;;;;;;;;;;;;;;;-149.78;38.60;49865.19;5084722;28;19990;-72
2022/06/17 07:06:22;;;;;;;;;;;;;;;-149.78;38.33;49833.91;5078776;28;19924;-73
2022/06/17 07:08:48;;;;;;;;;;;;;;;-149.78;39.85;49794.81;5079959;28;19974;-72
2022/06/17 07:11:16;;;;;;;;;;;;;;;-149.78;40.33;49849.56;5075227;28;19962;-72
2022/06/17 07:13:42;;;;;;;;;;;;;;;-149.78;40.73;49845.66;5079070;28;20008;-72
2022/06/17 07:16:09;;;;;;;;;;;;;;;-149.78;40.71;49847.59;5082158;28;20013;-72
2022/06/17 07:18:35;;;;;;;;;;;;;;;-149.78;40.44;49857.38;5085217;28;19984;-72
2022/06/17 07:21:03;;;;;;;;;;;;;;;-149.78;40.84;49849.56;5080446;28;19921;-71
2022/06/17 07:23:30;;;;;;;;;;;;;;;-149.78;41.39;49873.03;5075908;28;20595;-73
2022/06/17 07:25:59;;;;;;;;;;;;;;;-149.78;41.88;49853.47;5084457;28;20258;-73
2022/06/17 07:28:25;;;;;;;;;;;;;;;-149.78;41.89;49857.38;5077926;28;19920;-72
2022/06/17 07:30:52;;;;;;;;;;;;;;;-149.78;42.55;49880.84;5091317;28;19935;-72
2022/06/17 07:33:19;;;;;;;;;;;;;;;-149.78;42.54;49861.28;5076679;28;19916;-72
2022/06/17 07:35:45;;;;;;;;;;;;;;;-149.78;44.02;49851.50;5077480;28;20011;-72
2022/06/17 07:40:58;;;;;;;;;;;;;;;-149.78;42.31;49906.25;5083958;28;19917;-72
2022/06/17 07:43:23;;;;;;;;;;;;;;;-149.78;42.94;49873.03;5082643;28;19917;-72
2022/06/17 07:45:50;;;;;;;;;;;;;;;-149.78;42.90;49867.16;5082202;28;19935;-72
2022/06/17 07:48:18;;;;;;;;;;;;;;;-149.78;43.71;49871.06;5074422;28;20003;-72
2022/06/17 07:50:44;;;;;;;;;;;;;;;-149.78;44.05;49849.56;5084725;28;19917;-71
2022/06/17 07:53:10;;;;;;;;;;;;;;;-149.78;43.04;49841.72;5084430;28;19948;-72
2022/06/17 07:55:36;;;;;;;;;;;;;;;-149.78;42.67;49863.25;5079144;28;19963;-71
2022/06/17 07:58:01;;;;;;;;;;;;;;;-149.78;43.34;49822.19;5085071;28;19924;-72
2022/06/17 08:00:32;;;;;;;;;;;;;;;-149.78;44.08;49826.09;5090073;28;19920;-71
2022/06/17 08:02:57;;;;;;;;;;;;;;;-149.78;43.11;49830.00;5081260;28;20310;-74
2022/06/17 08:05:25;;;;;;;;;;;;;;;-149.78;42.92;49830.00;5079164;28;19980;-72
2022/06/17 08:07:51;;;;;;;;;;;;;;;-149.78;41.36;49802.63;5087510;28;20414;-72
2022/06/17 08:10:18;;;;;;;;;;;;;;;-149.78;39.63;49804.59;5082175;28;19917;-72
2022/06/17 08:12:44;;;;;;;;;;;;;;;-149.78;38.57;49775.25;5078249;28;19916;-72
2022/06/17 08:15:12;;;;;;;;;;;;;;;-149.78;37.24;49779.16;5079838;28;19922;-72
2022/06/17 08:17:38;;;;;;;;;;;;;;;-149.78;36.54;49790.91;5075139;28;20279;-70
2022/06/17 08:20:09;;;;;;;;;;;;;;;-149.78;35.63;49718.53;5089740;28;20037;-72
2022/06/17 08:22:36;;;;;;;;;;;;;;;-149.78;34.45;49708.75;5081044;28;20283;-72
2022/06/17 08:25:02;;;;;;;;;;;;;;;-149.78;34.73;49740.06;5079884;28;19995;-72
2022/06/17 08:27:27;;;;;;;;;;;;;;;-149.78;35.46;49751.78;5080177;28;20034;-72
2022/06/17 08:29:53;;;;;;;;;;;;;;;-149.78;35.16;49745.91;5067792;28;19968;-72
2022/06/17 08:35:04;;;;;;;;;;;;;;;-149.78;34.78;49706.81;5077446;28;19920;-72
2022/06/17 08:37:31;;;;;;;;;;;;;;;-149.78;33.56;49667.69;5079848;28;19943;-71
2022/06/17 08:39:57;;;;;;;;;;;;;;;-149.78;32.77;49661.84;5078854;28;19916;-72
2022/06/17 08:42:28;;;;;;;;;;;;;;;-149.78;32.28;49665.75;5093109;28;19925;-72
2022/06/17 08:45:20;;;;;;;;;;;;;;;-149.78;31.81;49681.38;5086228;28;19916;-72
2022/06/17 08:47:57;;;;;;;;;;;;;;;-149.78;31.65;49634.47;5082551;28;20305;-72
2022/06/17 08:50:28;;;;;;;;;;;;;;;-149.78;31.93;49661.84;5081849;28;19916;-71
2022/06/17 08:53:03;;;;;;;;;;;;;;;-149.78;31.28;49700.94;5075319;28;19916;-72
2022/06/17 08:55:42;;;;;;;;;;;;;;;-149.78;31.58;49642.28;5084905;28;19916;-72
2022/06/17 08:58:26;;;;;;;;;;;;;;;-149.78;31.52;49650.09;5083801;28;19917;-72
2022/06/17 09:01:12;;;;;;;;;;;;;;;-149.78;31.67;49654.00;5085256;28;19965;-72
2022/06/17 09:03:43;;;;;;;;;;;;;;;-149.78;32.17;49638.38;5091741;28;19916;-72
2022/06/17 09:06:27;;;;;;;;;;;;;;;-149.78;31.74;49622.72;5093010;28;19924;-72
2022/06/17 09:08:53;;;;;;;;;;;;;;;-149.78;31.41;49650.09;5094188;28;19923;-72
2022/06/17 09:11:19;;;;;;;;;;;;;;;-149.78;31.50;49591.44;5078105;28;19920;-72
2022/06/17 09:13:45;;;;;;;;;;;;;;;-149.78;31.58;49605.13;5086919;28;19927;-72
2022/06/17 09:16:16;;;;;;;;;;;;;;;-149.78;30.89;49560.16;5078597;28;19920;-72
2022/06/17 09:18:43;;;;;;;;;;;;;;;-149.78;30.11;49554.28;5075309;28;20387;-72
2022/06/17 09:21:24;;;;;;;;;;;;;;;-149.78;29.46;49575.81;5084718;28;19917;-72
2022/06/17 09:23:50;;;;;;;;;;;;;;;-149.78;29.74;49583.63;5085055;28;19977;-72
2022/06/17 09:26:21;;;;;;;;;;;;;;;-149.78;29.49;49564.06;5091809;28;19920;-71
2022/06/17 09:28:49;;;;;;;;;;;;;;;-149.78;30.08;49630.56;5085752;28;19962;-71
2022/06/17 09:31:17;;;;;;;;;;;;;;;-149.78;31.13;49630.56;5074567;28;19959;-71
2022/06/17 09:33:50;;;;;;;;;;;;;;;-149.78;31.92;49646.19;5077676;28;19915;-71
2022/06/17 09:36:22;;;;;;;;;;;;;;;-149.78;31.31;49669.66;5082962;28;19950;-71
2022/06/17 09:38:52;;;;;;;;;;;;;;;-149.78;31.35;49638.38;5081907;28;19925;-71
2022/06/17 09:41:23;;;;;;;;;;;;;;;-149.78;31.98;49642.28;5076258;28;19916;-72
2022/06/17 09:44:06;;;;;;;;;;;;;;;-149.78;31.94;49605.13;5086221;28;20043;-73
2022/06/17 09:46:38;;;;;;;;;;;;;;;-149.78;31.06;49605.13;5088357;28;19928;-73
2022/06/17 09:49:13;;;;;;;;;;;;;;;-149.78;29.03;49548.44;5082589;28;19917;-72
2022/06/17 09:52:05;;;;;;;;;;;;;;;-149.78;28.74;49548.44;5086951;28;20345;-72
2022/06/17 09:54:33;;;;;;;;;;;;;;;-149.78;29.18;49548.44;5079829;28;19920;-71
2022/06/17 09:57:09;;;;;;;;;;;;;;;-149.78;29.03;49556.25;5079504;28;20076;-72
2022/06/17 09:59:38;;;;;;;;;;;;;;;-149.78;28.06;49517.13;5081158;28;19926;-72
2022/06/17 10:02:18;;;;;;;;;;;;;;;-149.78;28.32;49507.38;5074293;28;20268;-72
2022/06/17 10:04:44;;;;;;;;;;;;;;;-149.78;28.65;49562.13;5088474;28;19916;-71
2022/06/17 10:07:34;;;;;;;;;;;;;;;-149.78;29.56;49612.94;5094643;28;19925;-71
2022/06/17 10:10:09;;;;;;;;;;;;;;;-149.78;30.50;49603.19;5076517;28;20458;-70
2022/06/17 10:12:58;;;;;;;;;;;;;;;-149.78;31.39;49607.09;5077781;28;19916;-69
2022/06/17 10:15:23;;;;;;;;;;;;;;;-149.78;31.46;49655.97;5078065;28;20308;-70
2022/06/17 10:21:15;;;;;;;;;;;;;;;-149.78;32.01;49644.25;5078084;28;20367;-70
2022/06/17 10:23:52;;;;;;;;;;;;;;;-149.78;32.00;49607.09;5068271;28;19964;-70
2022/06/17 10:26:21;;;;;;;;;;;;;;;-149.78;32.57;49665.75;5070623;28;19926;-69
2022/06/17 10:29:03;;;;;;;;;;;;;;;-149.78;33.10;49677.47;5080184;28;19923;-69
2022/06/17 10:31:37;;;;;;;;;;;;;;;-149.78;33.73;49665.75;5077622;28;20009;-70
2022/06/17 10:34:06;;;;;;;;;;;;;;;-149.78;33.72;49708.75;5073982;28;20008;-69
2022/06/17 10:36:32;;;;;;;;;;;;;;;-149.78;34.42;49714.63;5073659;28;20366;-70
2022/06/17 10:39:00;;;;;;;;;;;;;;;-149.78;34.11;49671.63;5096476;28;19967;-69
2022/06/17 10:41:26;;;;;;;;;;;;;;;-149.78;33.70;49646.19;5085949;28;19927;-69
2022/06/17 10:43:52;;;;;;;;;;;;;;;-149.78;33.70;49673.56;5077554;28;20268;-69
2022/06/17 10:46:23;;;;;;;;;;;;;;;-149.78;33.75;49624.69;5080175;28;20016;-70
2022/06/17 10:48:48;;;;;;;;;;;;;;;-149.78;33.54;49622.72;5079362;28;19923;-70
2022/06/17 10:51:14;;;;;;;;;;;;;;;-149.78;33.42;49638.38;5086712;28;19920;-70
2022/06/17 10:53:40;;;;;;;;;;;;;;;-149.78;33.51;49603.19;5085892;28;20338;-70
2022/06/17 10:56:09;;;;;;;;;;;;;;;-149.78;33.37;49638.38;5082054;28;19916;-69
2022/06/17 10:58:35;;;;;;;;;;;;;;;-149.78;33.10;49630.56;5082214;28;19955;-70
2022/06/17 11:01:11;;;;;;;;;;;;;;;-149.78;33.56;49599.25;5085006;28;19950;-70
2022/06/17 11:03:38;;;;;;;;;;;;;;;-149.78;34.13;49630.56;5081875;28;19923;-69
2022/06/17 11:06:13;;;;;;;;;;;;;;;-149.78;33.39;49599.25;5083007;28;19920;-69
2022/06/17 11:08:55;;;;;;;;;;;;;;;-149.78;33.91;49630.56;5079989;28;19995;-69
2022/06/17 11:14:19;;;;;;;;;;;;;;;-149.78;33.37;49611.00;5086093;28;20056;-69
2022/06/17 11:16:46;;;;;;;;;;;;;;;-149.78;33.92;49646.19;5083698;28;19927;-69
2022/06/17 11:19:15;;;;;;;;;;;;;;;-149.78;34.86;49665.75;5082328;28;19916;-70
2022/06/17 11:21:46;;;;;;;;;;;;;;;-149.78;34.68;49669.66;5087081;28;19947;-70
2022/06/17 11:24:20;;;;;;;;;;;;;;;-149.78;34.85;49642.28;5080669;28;19942;-70
2022/06/17 11:26:59;;;;;;;;;;;;;;;-149.78;35.33;49671.63;5084894;28;19926;-70
2022/06/17 11:29:34;;;;;;;;;;;;;;;-149.78;36.04;49673.56;5083766;28;19934;-70
2022/06/17 11:32:11;;;;;;;;;;;;;;;-149.78;36.30;49654.00;5081791;28;19964;-70
2022/06/17 11:34:45;;;;;;;;;;;;;;;-149.78;36.58;49642.28;5087377;28;19916;-70
2022/06/17 11:37:21;;;;;;;;;;;;;;;-149.78;36.44;49644.25;5084114;28;19993;-70
2022/06/17 11:39:47;;;;;;;;;;;;;;;-149.78;36.94;49630.56;5074329;28;19916;-70
2022/06/17 11:42:14;;;;;;;;;;;;;;;-149.78;36.92;49665.75;5089708;28;19931;-70
2022/06/17 11:44:51;;;;;;;;;;;;;;;-149.78;36.94;49712.69;5076442;28;19927;-70
2022/06/17 11:47:19;;;;;;;;;;;;;;;-149.78;37.34;49681.38;5091605;28;19927;-70
2022/06/17 11:49:45;;;;;;;;;;;;;;;-149.78;37.25;49648.16;5089979;28;19965;-71
2022/06/17 11:52:20;;;;;;;;;;;;;;;-149.78;37.29;49630.56;5074610;28;19916;-70
2022/06/17 11:54:48;;;;;;;;;;;;;;;-149.78;37.00;49659.88;5078620;28;19939;-70
2022/06/17 11:57:17;;;;;;;;;;;;;;;-149.78;37.19;49654.00;5091834;28;19978;-71
2022/06/17 11:59:44;;;;;;;;;;;;;;;-149.78;38.03;49650.09;5077202;28;19920;-71
2022/06/17 12:02:10;;;;;;;;;;;;;;;-149.78;37.48;49638.38;5086878;28;19924;-71
2022/06/17 12:04:45;;;;;;;;;;;;;;;-149.78;36.14;49622.72;5086722;28;19974;-70
2022/06/17 12:07:22;;;;;;;;;;;;;;;-149.78;36.87;49626.63;5077562;28;19927;-71
2022/06/17 12:09:56;;;;;;;;;;;;;;;-149.78;36.40;49642.28;5077810;28;19959;-71
2022/06/17 12:12:22;;;;;;;;;;;;;;;-149.78;37.05;49614.91;5079197;28;19916;-71
2022/06/17 12:14:56;;;;;;;;;;;;;;;-149.78;36.62;49622.72;5081929;28;20264;-71
2022/06/17 12:17:23;;;;;;;;;;;;;;;-149.78;36.61;49626.63;5076845;28;20347;-71
2022/06/17 12:19:48;;;;;;;;;;;;;;;-149.78;37.34;49607.09;5080995;28;20263;-70
2022/06/17 12:22:18;;;;;;;;;;;;;;;-149.78;36.86;49614.91;5091820;28;20006;-71
2022/06/17 12:24:43;;;;;;;;;;;;;;;-149.78;36.61;49599.25;5074364;28;19962;-71
2022/06/17 12:27:18;;;;;;;;;;;;;;;-149.78;36.84;49618.81;5081890;28;19928;-70
2022/06/17 12:29:54;;;;;;;;;;;;;;;-149.78;37.37;49622.72;5088885;28;20360;-70
2022/06/17 12:32:23;;;;;;;;;;;;;;;-149.78;36.98;49618.81;5079271;28;19970;-70
2022/06/17 12:35:08;;;;;;;;;;;;;;;-149.78;37.08;49614.91;5072495;28;19974;-70
2022/06/17 12:37:51;;;;;;;;;;;;;;;-149.78;36.97;49560.16;5081351;28;19916;-69
2022/06/17 12:40:35;;;;;;;;;;;;;;;-149.78;38.93;49599.25;5089431;28;20029;-70
2022/06/17 12:43:30;;;;;;;;;;;;;;;-149.78;37.16;49607.09;5078517;28;20014;-70
2022/06/17 12:46:09;;;;;;;;;;;;;;;-149.78;37.22;49607.09;5089882;28;20423;-69
2022/06/17 12:48:38;;;;;;;;;;;;;;;-149.78;37.91;49630.56;5093631;28;20295;-70
2022/06/17 12:53:50;;;;;;;;;;;;;;;-149.78;36.52;49605.13;5084937;28;19924;-70
2022/06/17 12:56:30;;;;;;;;;;;;;;;-149.78;37.17;49595.34;5082476;28;19919;-70